Terminal Aerodrome Forecast
Issued by NWS Charleston, WV

Current Version | Previous Version | Text Only | Print | Product List | Glossary On
Versions: 1 2 3 4 5 6 7 8 9 10 11 12 13 14 15 16 17 18 19 20 21 22 23 24 25
000
FTUS41 KRLX 231100
TAFBKW
TAF
KBKW 231134Z 2312/2412 VRB03KT 6SM BR OVC004
      TEMPO 2312/2313 4SM -DZ BR
     FM231300 30003KT 5SM BR OVC010
     FM231500 30004KT P6SM BKN015
     FM231700 31004KT P6SM BKN020
     FM231900 33004KT P6SM VCTS BKN025CB
     FM240200 11004KT 5SM BR OVC015
     FM240600 13005KT 4SM BR OVC009=

USA.gov is the U.S. government's official web portal to all federal, state and local government web resources and services.